Delta, CO

3:51 PM MDT on April 24, 2017 (GMT -0600)
Delta

Weather History for KAJZ - April, 2014

Change the Weather History Date:

Tuesday, April 1, 2014

  Actual Average (KMTJ) Record (KMTJ)
Temperature  
Mean Temperature 52 °F -  
Max Temperature 63 °F 55 °F 75 °F (2012)
Min Temperature 41 °F 31 °F 19 °F (2008)
Degree Days  
Heating Degree Days 13    
Growing Degree Days 2 (Base 50)    
Moisture  
Dew Point 10 °F    
Average Humidity 19    
Maximum Humidity 39    
Minimum Humidity 9    
Precipitation  
Precipitation 0.00 in - - ()
Sea Level Pressure  
Sea Level Pressure 29.72 in    
Wind  
Wind Speed 11 mph (SW)    
Max Wind Speed 31 mph    
Max Gust Speed 44 mph    
Visibility 10 miles    
Events      
Averages and records for this station are not official NWS values.
T = Trace of Precipitation, MM = Missing Value Source: NWS Daily Summary

Daily Weather History Graph

Daily Weather History Graph

Search for Another Location

Airport or City:

Trip Planner

Search our weather history database for the weather conditions in past years. The results will help you decide how hot, cold, wet, or windy it might be!

Date:

Astronomy

Apr. 01, 2014 Rise Set
Actual Time 6:56 AM MDT 7:35 PM MDT
Civil Twilight 6:30 AM MDT 8:02 PM MDT
Nautical Twilight 5:58 AM MDT 8:34 PM MDT
Astronomical Twilight 5:25 AM MDT 9:07 PM MDT
Moon 8:02 AM MDT (4/1) 10:00 PM MDT (4/1)
Length of Visible Light 13h 32m
Length of Day
12h 39m
Waxing Crescent, 5% of the Moon is Illuminated
Apr 1
Waxing Crescent
Apr 7
First Quarter
Apr 15
Full
Apr 22
Last Quarter
Apr 29
New

Hourly Weather History & Observations

Time (MDT) Temp. Windchill Dew Point Humidity Pressure Visibility Wind Dir Wind Speed Gust Speed Precip Events Conditions
12:15 AM 44.8 °F 41.0 °F 10.2 °F 25% 29.82 in 10.0 mi SE 6.9 mph - N/A   Mostly Cloudy
12:35 AM 44.1 °F 39.0 °F 11.3 °F 26% 29.81 in 10.0 mi ESE 9.2 mph - N/A   Scattered Clouds
12:55 AM 41.9 °F 38.2 °F 14.0 °F 32% 29.81 in 10.0 mi ESE 5.8 mph - N/A   Clear
1:15 AM 41.9 °F - 13.1 °F 31% 29.81 in 10.0 mi Calm Calm - N/A   Clear
1:35 AM 41.9 °F - 16.2 °F 35% 29.80 in 10.0 mi Calm Calm - N/A   Clear
1:55 AM 44.6 °F - 13.3 °F 28% 29.80 in 10.0 mi Calm Calm - N/A   Clear
2:15 AM 43.9 °F 42.3 °F 14.7 °F 31% 29.79 in 10.0 mi North 3.5 mph - N/A   Clear
2:35 AM 43.2 °F 41.5 °F 13.6 °F 30% 29.79 in 10.0 mi ENE 3.5 mph - N/A   Clear
2:55 AM 42.1 °F 40.2 °F 18.7 °F 39% 29.79 in 10.0 mi WNW 3.5 mph - N/A   Clear
3:15 AM 44.6 °F 43.1 °F 13.1 °F 28% 29.79 in 10.0 mi ENE 3.5 mph - N/A   Clear
3:35 AM 46.4 °F 44.3 °F 12.9 °F 26% 29.78 in 10.0 mi East 4.6 mph - N/A   Mostly Cloudy
3:55 AM 45.0 °F 42.6 °F 17.1 °F 33% 29.78 in 10.0 mi North 4.6 mph - N/A   Scattered Clouds
4:15 AM 50.5 °F - 12.4 °F 22% 29.78 in 10.0 mi SSW 5.8 mph - N/A   Clear
4:35 AM 52.9 °F - 12.0 °F 20% 29.77 in 10.0 mi SW 24.2 mph 39.1 mph N/A   Scattered Clouds
4:55 AM 53.8 °F - 10.6 °F 18% 29.77 in 10.0 mi SW 16.1 mph 28.8 mph N/A   Scattered Clouds
5:15 AM 53.4 °F - 12.0 °F 19% 29.76 in 10.0 mi South 10.4 mph 26.5 mph N/A   Scattered Clouds
5:35 AM 51.8 °F - 12.6 °F 21% 29.75 in 10.0 mi SSW 9.2 mph - N/A   Scattered Clouds
5:55 AM 50.2 °F - 12.6 °F 22% 29.75 in 10.0 mi SW 4.6 mph - N/A   Scattered Clouds
6:15 AM 49.1 °F - 12.0 °F 23% 29.75 in 10.0 mi Calm Calm - N/A   Mostly Cloudy
6:35 AM 49.6 °F - 11.5 °F 22% 29.75 in 10.0 mi SW 3.5 mph - N/A   Mostly Cloudy
6:55 AM 49.1 °F - 11.3 °F 22% 29.75 in 10.0 mi WSW 3.5 mph - N/A   Mostly Cloudy
7:15 AM 50.5 °F - 9.5 °F 19% 29.75 in 10.0 mi WSW 10.4 mph - N/A   Mostly Cloudy
7:35 AM 49.3 °F - 9.5 °F 20% 29.76 in 10.0 mi SSW 6.9 mph - N/A   Scattered Clouds
7:55 AM 50.9 °F - 8.6 °F 18% 29.76 in 10.0 mi SSW 12.7 mph 18.4 mph N/A   Scattered Clouds
8:15 AM 53.6 °F - 9.1 °F 17% 29.76 in 10.0 mi SSW 17.3 mph 38.0 mph N/A   Mostly Cloudy
8:35 AM 54.5 °F - 8.1 °F 16% 29.76 in 10.0 mi SSW 15.0 mph 20.7 mph N/A   Scattered Clouds
8:55 AM 55.2 °F - 8.6 °F 16% 29.76 in 10.0 mi SSW 16.1 mph 23.0 mph N/A   Clear
9:15 AM 56.3 °F - 10.0 °F 16% 29.76 in 10.0 mi WSW 13.8 mph 23.0 mph N/A   Mostly Cloudy
9:35 AM 56.3 °F - 11.7 °F 17% 29.76 in 10.0 mi SW 26.5 mph 32.2 mph N/A   Mostly Cloudy
9:55 AM 57.4 °F - 11.8 °F 17% 29.76 in 10.0 mi SW 27.6 mph 33.4 mph N/A   Scattered Clouds
10:15 AM 57.4 °F - 11.7 °F 16% 29.76 in 10.0 mi SW 26.5 mph 35.7 mph N/A   Scattered Clouds
10:35 AM 57.9 °F - 10.9 °F 16% 29.75 in 10.0 mi SW 21.9 mph 29.9 mph N/A   Scattered Clouds
10:55 AM 58.1 °F - 9.7 °F 15% 29.75 in 10.0 mi SSW 26.5 mph 38.0 mph N/A   Mostly Cloudy
11:15 AM 58.5 °F - 10.0 °F 15% 29.75 in 10.0 mi SW 24.2 mph 36.8 mph N/A   Overcast
11:35 AM 57.7 °F - 10.6 °F 15% 29.75 in 10.0 mi SW 26.5 mph 34.5 mph N/A   Overcast
11:55 AM 57.7 °F - 10.0 °F 15% 29.75 in 10.0 mi SW 24.2 mph 40.3 mph N/A   Mostly Cloudy
12:15 PM 57.7 °F - 10.8 °F 16% 29.74 in 10.0 mi SW 23.0 mph 28.8 mph N/A   Mostly Cloudy
12:35 PM 58.3 °F - 9.5 °F 14% 29.73 in 10.0 mi SW 18.4 mph 31.1 mph N/A   Mostly Cloudy
12:55 PM 60.8 °F - 8.6 °F 13% 29.72 in 10.0 mi WSW 31.1 mph 38.0 mph N/A   Mostly Cloudy
1:15 PM 59.2 °F - 7.7 °F 13% 29.71 in 10.0 mi WSW 21.9 mph 35.7 mph N/A   Mostly Cloudy
1:35 PM 60.8 °F - 7.7 °F 12% 29.70 in 10.0 mi WSW 27.6 mph 43.7 mph N/A   Mostly Cloudy
1:55 PM 60.8 °F - 7.5 °F 12% 29.70 in 10.0 mi SW 28.8 mph 38.0 mph N/A   Mostly Cloudy
2:35 PM 61.3 °F - 7.3 °F 12% 29.68 in 10.0 mi SW 28.8 mph 38.0 mph N/A   Overcast
2:55 PM 61.5 °F - 6.6 °F 11% 29.67 in 10.0 mi SW 26.5 mph 38.0 mph N/A   Mostly Cloudy
3:15 PM 62.1 °F - 5.7 °F 11% 29.67 in 10.0 mi SW 28.8 mph 39.1 mph N/A   Overcast
3:35 PM 62.6 °F - 5.7 °F 10% 29.66 in 10.0 mi WSW 23.0 mph 35.7 mph N/A   Scattered Clouds
3:55 PM 63.5 °F - 5.0 °F 10% 29.66 in 7.0 mi SW 25.3 mph 35.7 mph N/A   Scattered Clouds
4:15 PM 63.0 °F - 4.1 °F 10% 29.64 in 10.0 mi SW 27.6 mph 38.0 mph N/A   Scattered Clouds
4:35 PM 63.9 °F - 4.6 °F 10% 29.64 in 10.0 mi SW 20.7 mph 33.4 mph N/A   Clear
4:55 PM 63.7 °F - 3.7 °F 9% 29.64 in 10.0 mi WSW 21.9 mph 38.0 mph N/A   Clear
5:15 PM 63.7 °F - 4.3 °F 9% 29.63 in 10.0 mi WSW 23.0 mph 29.9 mph N/A   Clear
5:35 PM 62.6 °F - 2.3 °F 9% 29.63 in 10.0 mi SW 23.0 mph 33.4 mph N/A   Clear
5:55 PM 62.6 °F - 3.0 °F 9% 29.63 in 10.0 mi WSW 17.3 mph 26.5 mph N/A   Clear
6:15 PM 62.6 °F - 3.4 °F 9% 29.63 in 10.0 mi SW 21.9 mph 35.7 mph N/A   Clear
6:35 PM 61.7 °F - 3.4 °F 10% 29.63 in 10.0 mi SSW 15.0 mph 29.9 mph N/A   Clear
6:55 PM 59.9 °F - 7.9 °F 13% 29.63 in 10.0 mi West 13.8 mph 19.6 mph N/A   Clear
7:15 PM 58.6 °F - 8.6 °F 14% 29.64 in 10.0 mi WNW 9.2 mph - N/A   Clear
7:35 PM 58.1 °F - 8.8 °F 14% 29.64 in 10.0 mi NW 12.7 mph 16.1 mph N/A   Clear
7:55 PM 56.7 °F - 10.2 °F 16% 29.65 in 10.0 mi Calm Calm - N/A   Clear
8:15 PM 57.0 °F - 9.7 °F 15% 29.66 in 10.0 mi West 4.6 mph 18.4 mph N/A   Clear
8:35 PM 54.9 °F - 10.9 °F 17% 29.66 in 10.0 mi West 5.8 mph - N/A   Clear
8:55 PM 54.3 °F - 11.1 °F 18% 29.66 in 10.0 mi WNW 4.6 mph - N/A   Clear
9:15 PM 53.6 °F - 11.3 °F 19% 29.66 in 10.0 mi South 3.5 mph - N/A   Clear
9:35 PM 48.6 °F - 12.2 °F 23% 29.67 in 10.0 mi Calm Calm - N/A   Clear
9:55 PM 47.3 °F - 12.2 °F 24% 29.67 in 10.0 mi East 6.9 mph - N/A   Clear
10:15 PM 45.9 °F 42.9 °F 12.6 °F 26% 29.67 in 10.0 mi ENE 5.8 mph - N/A   Clear
10:35 PM 42.8 °F 39.3 °F 15.1 °F 33% 29.67 in 10.0 mi NNE 5.8 mph - N/A   Clear
10:55 PM 43.5 °F 40.1 °F 13.8 °F 30% 29.68 in 10.0 mi NNE 5.8 mph - N/A   Clear
11:35 PM 41.0 °F 37.1 °F 14.7 °F 34% 29.69 in 10.0 mi NE 5.8 mph - N/A   Clear
11:55 PM 41.7 °F - 12.9 °F 31% 29.70 in 10.0 mi Calm Calm - N/A   Clear